Time;durP1;ratioP1;P1;durP2;ratioP2;P2;SDS_P1;SDS_P2;PMS_P1;PMS_P2;Temp;Humidity;BMP_temperature;BMP_pressure;BME280_temperature;BME280_humidity;BME280_pressure;Samples;Min_cycle;Max_cycle;Signal;HPM_P1;HPM_P2
2024/01/12 00:00:13;;;;;;;7.60;1.85;;;28.30;99.90;;;;;;4940463;29;20039;-74
2024/01/12 00:02:40;;;;;;;13.00;2.08;;;28.20;99.90;;;;;;4946013;28;20477;-72
2024/01/12 00:05:08;;;;;;;10.15;2.00;;;28.00;99.90;;;;;;4941598;29;20028;-72
2024/01/12 00:07:35;;;;;;;10.50;1.80;;;27.90;99.90;;;;;;4939342;28;20505;-71
2024/01/12 00:10:03;;;;;;;10.02;1.83;;;27.60;99.90;;;;;;4945840;28;20579;-71
2024/01/12 00:12:31;;;;;;;8.50;1.70;;;27.50;99.90;;;;;;4941226;29;20473;-72
2024/01/12 00:14:58;;;;;;;12.27;2.15;;;27.70;99.90;;;;;;4945422;28;20805;-71
2024/01/12 00:17:25;;;;;;;9.55;2.45;;;27.50;99.90;;;;;;4946466;28;20062;-71
2024/01/12 00:19:53;;;;;;;9.18;1.83;;;27.50;99.90;;;;;;4940910;28;20382;-71
2024/01/12 00:22:20;;;;;;;9.63;1.92;;;27.60;99.90;;;;;;4945746;29;20058;-71
2024/01/12 00:24:48;;;;;;;9.82;2.10;;;27.60;99.90;;;;;;4941371;28;20155;-71
2024/01/12 00:27:16;;;;;;;10.60;1.75;;;27.50;99.90;;;;;;4945975;28;20031;-69
2024/01/12 00:29:43;;;;;;;9.88;1.80;;;27.50;99.90;;;;;;4945623;28;20035;-71
2024/01/12 00:32:11;;;;;;;10.80;2.33;;;27.50;99.90;;;;;;4941836;28;20027;-71
2024/01/12 00:34:39;;;;;;;11.35;1.80;;;27.80;99.90;;;;;;4940366;29;20028;-71
2024/01/12 00:37:06;;;;;;;15.07;1.73;;;28.00;99.90;;;;;;4944454;28;20512;-70
2024/01/12 00:39:35;;;;;;;8.02;1.15;;;28.50;99.90;;;;;;4946790;28;20065;-71
2024/01/12 00:42:03;;;;;;;4.93;1.13;;;29.10;99.90;;;;;;4948419;28;20023;-71
2024/01/12 00:44:30;;;;;;;10.15;1.58;;;29.40;99.90;;;;;;4950179;29;20031;-71
2024/01/12 00:46:58;;;;;;;6.53;1.25;;;29.50;99.90;;;;;;4944968;28;20122;-71
2024/01/12 00:49:25;;;;;;;6.95;1.15;;;29.30;99.90;;;;;;4950764;28;20035;-71
2024/01/12 00:51:53;;;;;;;9.27;0.93;;;29.00;98.90;;;;;;4947894;28;20031;-71
2024/01/12 00:54:26;;;;;;;9.75;1.88;;;28.70;99.30;;;;;;4945156;28;20031;-72
2024/01/12 00:56:54;;;;;;;5.68;1.08;;;28.60;99.90;;;;;;4947906;28;20043;-71
2024/01/12 00:59:22;;;;;;;8.30;1.55;;;28.80;99.70;;;;;;4945651;29;20433;-71
2024/01/12 01:01:50;;;;;;;11.48;1.50;;;29.00;99.80;;;;;;4947396;29;20504;-73
2024/01/12 01:04:17;;;;;;;7.18;1.73;;;29.00;99.90;;;;;;4947863;28;20023;-73
2024/01/12 01:06:44;;;;;;;8.25;1.48;;;29.50;99.90;;;;;;4949040;28;20453;-74
2024/01/12 01:09:12;;;;;;;7.35;1.73;;;29.80;99.90;;;;;;4950269;28;20042;-74
2024/01/12 01:11:39;;;;;;;11.80;1.35;;;29.70;99.30;;;;;;4946937;28;20624;-73
2024/01/12 01:14:07;;;;;;;3.67;0.73;;;29.30;99.40;;;;;;4948564;28;20073;-74
2024/01/12 01:16:34;;;;;;;3.30;0.68;;;29.00;99.40;;;;;;4950998;28;20067;-72
2024/01/12 01:19:01;;;;;;;2.78;0.50;;;28.50;99.20;;;;;;4946247;28;20481;-74
2024/01/12 01:21:29;;;;;;;4.35;0.40;;;28.50;99.20;;;;;;4949090;28;20031;-74
2024/01/12 01:23:57;;;;;;;4.07;0.68;;;28.50;99.00;;;;;;4948835;28;20096;-74
2024/01/12 01:26:24;;;;;;;3.17;0.52;;;28.80;98.80;;;;;;4946309;29;20027;-74
2024/01/12 01:28:51;;;;;;;4.45;0.73;;;29.20;98.60;;;;;;4950330;29;20099;-73
2024/01/12 01:31:19;;;;;;;6.13;0.90;;;29.70;98.20;;;;;;4949916;28;20043;-72
2024/01/12 01:33:46;;;;;;;4.43;0.65;;;30.10;97.30;;;;;;4943098;28;20030;-74
2024/01/12 01:36:13;;;;;;;3.22;0.73;;;30.10;96.00;;;;;;4947389;28;20047;-74
2024/01/12 01:38:40;;;;;;;15.30;1.77;;;30.10;96.40;;;;;;4948271;29;20536;-72
2024/01/12 01:41:08;;;;;;;5.18;1.08;;;30.30;95.90;;;;;;4946499;28;20031;-72
2024/01/12 01:43:35;;;;;;;4.88;0.95;;;30.50;95.90;;;;;;4946853;28;20114;-71
2024/01/12 01:46:03;;;;;;;6.75;1.30;;;30.60;95.20;;;;;;4942721;28;20093;-72
2024/01/12 01:48:32;;;;;;;7.82;1.20;;;30.70;95.20;;;;;;4949028;28;20027;-73
2024/01/12 01:51:00;;;;;;;7.70;1.50;;;31.00;95.50;;;;;;4947392;28;20158;-73
2024/01/12 01:53:27;;;;;;;4.72;1.02;;;31.30;95.00;;;;;;4945076;28;20070;-73
2024/01/12 01:55:55;;;;;;;6.47;1.00;;;31.00;94.10;;;;;;4949725;29;20039;-73
2024/01/12 01:58:22;;;;;;;8.48;1.85;;;30.80;93.80;;;;;;4949300;28;20023;-72
2024/01/12 02:00:52;;;;;;;9.93;1.88;;;30.60;95.30;;;;;;4946638;28;20035;-74
2024/01/12 02:03:20;;;;;;;7.53;1.40;;;30.20;95.70;;;;;;4947956;28;20057;-73
2024/01/12 02:05:50;;;;;;;8.23;1.20;;;30.10;96.20;;;;;;4947216;28;20035;-74
2024/01/12 02:08:17;;;;;;;10.43;1.90;;;29.90;95.90;;;;;;4949225;28;20440;-71
2024/01/12 02:10:45;;;;;;;9.90;1.45;;;29.80;95.20;;;;;;4949296;28;20520;-73
2024/01/12 02:13:13;;;;;;;5.20;1.35;;;30.00;94.80;;;;;;4944240;29;20039;-73
2024/01/12 02:15:40;;;;;;;6.68;1.02;;;30.60;95.20;;;;;;4949207;29;20039;-73
2024/01/12 02:18:08;;;;;;;7.72;1.42;;;31.20;94.30;;;;;;4949613;28;20035;-73
2024/01/12 02:20:35;;;;;;;7.72;1.35;;;31.70;92.70;;;;;;4945629;29;20019;-74
2024/01/12 02:23:02;;;;;;;6.38;1.10;;;31.50;92.50;;;;;;4946680;29;20047;-73
2024/01/12 02:25:30;;;;;;;10.05;1.58;;;31.30;93.20;;;;;;4949469;28;20027;-72
2024/01/12 02:27:57;;;;;;;8.30;1.00;;;31.60;93.10;;;;;;4949553;28;20546;-72
2024/01/12 02:30:25;;;;;;;7.82;0.98;;;31.70;92.20;;;;;;4946786;28;20027;-72
2024/01/12 02:32:52;;;;;;;6.15;1.08;;;31.40;92.10;;;;;;4949861;28;20069;-73
2024/01/12 02:35:19;;;;;;;9.52;1.35;;;31.50;92.50;;;;;;4946361;28;20504;-72
2024/01/12 02:37:47;;;;;;;9.77;1.02;;;31.80;93.00;;;;;;4947458;29;20477;-73
2024/01/12 02:40:14;;;;;;;5.50;0.90;;;32.00;92.50;;;;;;4948521;28;20030;-74
2024/01/12 02:42:42;;;;;;;10.63;1.08;;;32.20;91.70;;;;;;4946392;29;20040;-72
2024/01/12 02:45:09;;;;;;;5.68;1.20;;;31.70;92.40;;;;;;4946652;28;20346;-73
2024/01/12 02:47:37;;;;;;;6.35;0.95;;;32.20;92.90;;;;;;4947678;28;20038;-74
2024/01/12 02:50:05;;;;;;;9.50;1.73;;;32.40;92.20;;;;;;4943174;28;20117;-73
2024/01/12 02:52:35;;;;;;;5.03;1.33;;;32.80;92.50;;;;;;4946366;29;20043;-73
2024/01/12 02:55:03;;;;;;;6.72;1.00;;;33.00;91.60;;;;;;4943895;28;20351;-72
2024/01/12 02:57:31;;;;;;;6.95;1.20;;;33.20;90.80;;;;;;4945940;28;20050;-70
2024/01/12 02:59:59;;;;;;;6.13;1.08;;;33.20;89.60;;;;;;4942338;28;20118;-73
2024/01/12 03:02:26;;;;;;;10.82;1.30;;;32.90;87.70;;;;;;4944147;28;20042;-72
2024/01/12 03:04:55;;;;;;;9.30;1.00;;;32.90;88.50;;;;;;4944468;28;20031;-73
2024/01/12 03:07:22;;;;;;;5.05;1.23;;;32.80;88.20;;;;;;4945390;28;20350;-73
2024/01/12 03:09:49;;;;;;;7.30;0.90;;;32.90;88.90;;;;;;4945589;28;20521;-72
2024/01/12 03:12:17;;;;;;;5.93;1.08;;;33.30;88.70;;;;;;4949854;29;20461;-71
2024/01/12 03:14:44;;;;;;;5.18;1.20;;;33.60;87.40;;;;;;4946190;28;20031;-73
2024/01/12 03:17:11;;;;;;;6.22;1.10;;;33.90;87.80;;;;;;4947820;28;20046;-73
2024/01/12 03:19:39;;;;;;;5.63;1.13;;;33.70;85.00;;;;;;4943221;29;20062;-73
2024/01/12 03:22:06;;;;;;;4.78;1.00;;;33.60;84.90;;;;;;4942553;29;20027;-74
2024/01/12 03:24:33;;;;;;;5.50;0.65;;;33.70;82.50;;;;;;4949172;28;20033;-73
2024/01/12 03:27:01;;;;;;;7.15;0.98;;;33.70;82.40;;;;;;4943816;28;20032;-74
2024/01/12 03:29:28;;;;;;;6.35;1.10;;;33.60;82.70;;;;;;4949625;29;20461;-73
2024/01/12 03:31:56;;;;;;;5.13;1.13;;;33.40;84.00;;;;;;4947219;28;20055;-73
2024/01/12 03:34:23;;;;;;;3.95;1.02;;;33.40;82.50;;;;;;4948282;28;20035;-73
2024/01/12 03:36:51;;;;;;;7.13;1.40;;;33.60;84.10;;;;;;4946673;29;20035;-73
2024/01/12 03:39:18;;;;;;;4.28;0.70;;;33.50;83.90;;;;;;4945603;29;20051;-74
2024/01/12 03:41:46;;;;;;;6.15;1.10;;;33.70;82.90;;;;;;4945204;28;20039;-75
2024/01/12 03:44:13;;;;;;;6.07;0.93;;;33.90;82.70;;;;;;4942948;29;20479;-74
2024/01/12 03:46:40;;;;;;;6.72;1.42;;;33.30;83.00;;;;;;4946615;29;20035;-74
2024/01/12 03:49:08;;;;;;;5.72;1.10;;;32.60;83.40;;;;;;4946837;29;20023;-74
2024/01/12 03:51:35;;;;;;;10.27;1.42;;;32.50;85.90;;;;;;4948999;28;20533;-73
2024/01/12 03:54:03;;;;;;;14.05;1.38;;;32.80;85.00;;;;;;4947820;29;20426;-72
2024/01/12 03:56:30;;;;;;;4.65;0.90;;;32.70;84.80;;;;;;4948497;29;20047;-72
2024/01/12 03:58:58;;;;;;;8.40;1.50;;;32.50;84.00;;;;;;4945207;28;20035;-73
2024/01/12 04:01:25;;;;;;;6.32;1.25;;;32.50;83.20;;;;;;4947700;28;20031;-74
2024/01/12 04:03:53;;;;;;;6.13;1.15;;;32.40;83.50;;;;;;4943290;28;20039;-74
2024/01/12 04:06:20;;;;;;;5.85;1.25;;;32.50;84.00;;;;;;4948474;28;20094;-74
2024/01/12 04:08:48;;;;;;;6.82;0.95;;;32.90;81.70;;;;;;4945910;28;20031;-75
2024/01/12 04:11:24;;;;;;;9.30;1.08;;;33.30;80.90;;;;;;4940929;28;20122;-74
2024/01/12 04:13:55;;;;;;;6.72;0.90;;;33.60;80.10;;;;;;4942789;28;20067;-75
2024/01/12 04:16:22;;;;;;;6.95;1.48;;;33.70;79.60;;;;;;4947389;28;20082;-75
2024/01/12 04:18:50;;;;;;;7.10;1.10;;;33.70;80.60;;;;;;4949763;28;20098;-74
2024/01/12 04:21:18;;;;;;;11.52;1.77;;;32.90;78.30;;;;;;4950591;29;20175;-73
2024/01/12 04:23:45;;;;;;;6.35;0.85;;;32.50;81.20;;;;;;4952811;28;20026;-73
2024/01/12 04:26:13;;;;;;;8.73;0.90;;;33.00;81.40;;;;;;4949711;28;20033;-73
2024/01/12 04:28:40;;;;;;;8.85;1.35;;;33.30;78.90;;;;;;4951155;28;20023;-73
2024/01/12 04:31:08;;;;;;;6.82;0.98;;;33.40;77.20;;;;;;4948828;28;20100;-74
2024/01/12 04:33:35;;;;;;;4.95;0.82;;;33.50;74.90;;;;;;4946864;29;20035;-74
2024/01/12 04:36:05;;;;;;;5.93;0.90;;;33.20;77.40;;;;;;4947725;28;20672;-73
2024/01/12 04:38:33;;;;;;;8.40;1.20;;;33.30;76.30;;;;;;4949803;28;20070;-73
2024/01/12 04:41:00;;;;;;;6.82;1.13;;;33.00;76.40;;;;;;4951614;29;20449;-74
2024/01/12 04:43:27;;;;;;;7.65;1.17;;;32.70;76.80;;;;;;4947290;28;20051;-74
2024/01/12 04:45:55;;;;;;;6.50;1.00;;;32.60;76.10;;;;;;4948849;28;20035;-74
2024/01/12 04:48:22;;;;;;;5.13;0.98;;;32.60;77.60;;;;;;4950930;28;20035;-74
2024/01/12 04:50:50;;;;;;;9.73;1.35;;;32.80;77.30;;;;;;4947946;29;20036;-74
2024/01/12 04:53:17;;;;;;;5.55;1.00;;;33.10;77.10;;;;;;4949963;28;20066;-73
2024/01/12 04:55:45;;;;;;;7.18;1.05;;;33.10;75.40;;;;;;4949922;28;20027;-73
2024/01/12 04:58:12;;;;;;;7.53;0.98;;;33.10;76.20;;;;;;4948371;29;20476;-74
2024/01/12 05:00:39;;;;;;;7.65;1.05;;;33.10;74.50;;;;;;4952452;28;20070;-73
2024/01/12 05:03:07;;;;;;;5.80;1.20;;;33.10;75.10;;;;;;4949962;28;20437;-73
2024/01/12 05:05:36;;;;;;;3.05;0.80;;;33.10;74.70;;;;;;4951738;28;20034;-73
2024/01/12 05:08:03;;;;;;;7.03;1.08;;;32.90;75.00;;;;;;4949981;28;20039;-73
2024/01/12 05:10:30;;;;;;;5.43;0.80;;;33.00;74.70;;;;;;4948981;29;20089;-73
2024/01/12 05:12:59;;;;;;;3.45;1.00;;;33.10;75.10;;;;;;4951650;28;20047;-73
2024/01/12 05:15:26;;;;;;;10.52;1.20;;;33.10;75.30;;;;;;4947363;28;20039;-73
2024/01/12 05:17:53;;;;;;;7.97;1.30;;;33.00;73.90;;;;;;4950874;28;20039;-73
2024/01/12 05:20:21;;;;;;;8.00;1.30;;;32.90;74.20;;;;;;4950894;28;20035;-74
2024/01/12 05:22:49;;;;;;;4.38;0.75;;;32.80;74.50;;;;;;4948825;28;20087;-73
2024/01/12 05:25:16;;;;;;;5.22;1.02;;;33.00;75.90;;;;;;4948171;28;20042;-74
2024/01/12 05:27:43;;;;;;;9.25;1.42;;;32.90;75.00;;;;;;4945241;28;20469;-74
2024/01/12 05:30:11;;;;;;;3.97;1.00;;;32.80;75.20;;;;;;4948294;28;20020;-73
2024/01/12 05:32:39;;;;;;;7.40;1.20;;;32.50;75.80;;;;;;4949731;29;20031;-73
2024/01/12 05:35:06;;;;;;;6.35;1.00;;;32.70;75.80;;;;;;4950550;28;20024;-73
2024/01/12 05:37:34;;;;;;;10.65;1.25;;;32.80;75.50;;;;;;4945769;28;20489;-73
2024/01/12 05:40:01;;;;;;;8.98;1.58;;;32.70;75.50;;;;;;4949815;28;20078;-73
2024/01/12 05:42:28;;;;;;;7.22;1.20;;;32.50;75.10;;;;;;4948491;28;20469;-74
2024/01/12 05:44:56;;;;;;;6.88;1.13;;;32.50;75.90;;;;;;4964704;28;20078;-72
2024/01/12 05:47:23;;;;;;;11.32;1.30;;;32.80;76.60;;;;;;4947699;28;20030;-75
2024/01/12 05:49:51;;;;;;;8.13;1.15;;;32.80;74.10;;;;;;4951416;29;20573;-73
2024/01/12 05:52:18;;;;;;;12.25;1.77;;;32.70;75.60;;;;;;4950235;28;20051;-73
2024/01/12 05:54:45;;;;;;;6.85;1.35;;;32.70;76.10;;;;;;4949367;28;20038;-73
2024/01/12 05:57:13;;;;;;;9.45;1.13;;;32.30;75.40;;;;;;4947378;29;20074;-73
2024/01/12 05:59:40;;;;;;;4.47;0.95;;;32.20;74.00;;;;;;4944990;28;20422;-74
2024/01/12 06:02:07;;;;;;;8.68;1.40;;;32.00;72.30;;;;;;4943451;29;20031;-73
2024/01/12 06:04:35;;;;;;;10.13;1.35;;;31.70;74.30;;;;;;4946269;29;20031;-73
2024/01/12 06:07:02;;;;;;;10.43;2.22;;;31.70;75.60;;;;;;4945324;29;20081;-74
2024/01/12 06:09:30;;;;;;;5.40;1.10;;;31.90;76.40;;;;;;4949135;28;20910;-74
2024/01/12 06:11:57;;;;;;;9.70;1.70;;;32.10;75.90;;;;;;4950547;28;20027;-72
2024/01/12 06:14:24;;;;;;;8.75;1.75;;;32.10;74.50;;;;;;4944891;28;20050;-71
2024/01/12 06:16:52;;;;;;;4.20;1.15;;;32.10;75.80;;;;;;4950977;29;20047;-70
2024/01/12 06:19:19;;;;;;;6.65;1.50;;;32.00;74.60;;;;;;4944370;29;20462;-70
2024/01/12 06:21:47;;;;;;;10.43;1.90;;;32.00;76.30;;;;;;4946964;28;20492;-70
2024/01/12 06:24:14;;;;;;;10.50;2.33;;;32.00;74.70;;;;;;4945807;28;20079;-67
2024/01/12 06:26:44;;;;;;;9.45;1.13;;;31.60;77.50;;;;;;4948192;29;20425;-70
2024/01/12 06:29:11;;;;;;;9.15;2.20;;;31.50;78.20;;;;;;4944898;29;20027;-70
2024/01/12 06:31:39;;;;;;;12.02;1.77;;;31.30;79.50;;;;;;4947086;28;20078;-70
2024/01/12 06:34:06;;;;;;;6.35;1.60;;;31.20;79.80;;;;;;4977928;28;20039;-69
2024/01/12 06:36:33;;;;;;;8.27;1.20;;;31.40;80.40;;;;;;4943220;28;20061;-70
2024/01/12 06:39:01;;;;;;;7.10;1.33;;;31.20;80.00;;;;;;4948650;28;20023;-70
2024/01/12 06:41:28;;;;;;;13.55;1.75;;;31.30;80.50;;;;;;4945324;28;20031;-69
2024/01/12 06:43:55;;;;;;;16.60;2.17;;;31.10;82.30;;;;;;4945732;28;20035;-69
2024/01/12 06:46:23;;;;;;;8.45;1.20;;;30.50;84.00;;;;;;4945322;28;20031;-70
2024/01/12 06:48:50;;;;;;;11.15;2.25;;;30.50;84.70;;;;;;4947280;28;20129;-70
2024/01/12 06:51:24;;;;;;;13.10;1.58;;;30.40;85.30;;;;;;4946706;28;20032;-70
2024/01/12 06:53:51;;;;;;;10.10;1.20;;;30.30;86.00;;;;;;4947041;29;20091;-70
2024/01/12 06:56:22;;;;;;;13.73;1.75;;;30.40;86.30;;;;;;4944513;29;20063;-70
2024/01/12 06:58:49;;;;;;;12.10;1.50;;;30.70;86.10;;;;;;4946739;29;20027;-70
2024/01/12 07:01:20;;;;;;;8.55;1.48;;;30.50;84.90;;;;;;4945615;29;20031;-70
2024/01/12 07:03:48;;;;;;;11.02;1.65;;;30.20;85.70;;;;;;4945776;28;20032;-70
2024/01/12 07:06:15;;;;;;;11.88;1.73;;;30.40;86.30;;;;;;4948775;28;20106;-71
2024/01/12 07:08:42;;;;;;;17.13;1.90;;;30.50;86.60;;;;;;4947992;29;20413;-71
2024/01/12 07:11:10;;;;;;;16.10;2.10;;;30.40;87.00;;;;;;4946205;28;20031;-71
2024/01/12 07:13:37;;;;;;;11.15;1.77;;;30.40;87.10;;;;;;4944383;29;20041;-70
2024/01/12 07:16:05;;;;;;;11.20;1.83;;;30.30;87.30;;;;;;4946392;28;20043;-70
2024/01/12 07:18:32;;;;;;;16.52;2.13;;;30.10;88.20;;;;;;4947209;29;20395;-70
2024/01/12 07:21:03;;;;;;;10.20;2.00;;;29.90;88.70;;;;;;4946223;28;20429;-70
2024/01/12 07:23:31;;;;;;;14.00;2.40;;;29.90;89.10;;;;;;4948660;28;20536;-70
2024/01/12 07:26:02;;;;;;;13.00;1.85;;;29.90;89.50;;;;;;4938215;29;20079;-70
2024/01/12 07:28:29;;;;;;;12.32;2.38;;;29.60;88.60;;;;;;4941460;29;20050;-69
2024/01/12 07:30:56;;;;;;;12.07;1.90;;;29.30;89.80;;;;;;4948249;28;20038;-69
2024/01/12 07:33:24;;;;;;;11.93;1.52;;;29.20;90.50;;;;;;4941572;28;20057;-70
2024/01/12 07:35:51;;;;;;;10.23;1.70;;;29.30;91.10;;;;;;4940160;29;20111;-70
2024/01/12 07:38:18;;;;;;;12.68;1.90;;;29.40;90.50;;;;;;4935706;29;20101;-71
2024/01/12 07:40:46;;;;;;;11.40;1.90;;;29.40;90.70;;;;;;4945387;28;20126;-71
2024/01/12 07:43:14;;;;;;;13.35;2.20;;;29.40;90.80;;;;;;4944957;29;20031;-68
2024/01/12 07:45:41;;;;;;;18.40;2.17;;;29.20;91.20;;;;;;4960505;28;20034;-68
2024/01/12 07:48:09;;;;;;;15.85;2.10;;;29.10;91.60;;;;;;4952129;28;20423;-69
2024/01/12 07:50:37;;;;;;;13.65;2.17;;;29.20;91.50;;;;;;4951938;28;20094;-70
2024/01/12 07:53:04;;;;;;;12.43;1.92;;;29.10;91.60;;;;;;4945998;28;20062;-72
2024/01/12 07:55:31;;;;;;;12.02;1.83;;;29.00;92.10;;;;;;4948649;28;20140;-69
2024/01/12 07:57:59;;;;;;;18.58;2.22;;;29.20;91.90;;;;;;4950122;28;20047;-69
2024/01/12 08:00:26;;;;;;;15.25;2.70;;;29.00;92.10;;;;;;4946881;28;20035;-69
2024/01/12 08:02:54;;;;;;;9.02;2.20;;;28.90;92.50;;;;;;4947596;28;20072;-69
2024/01/12 08:05:22;;;;;;;13.18;2.63;;;29.00;92.60;;;;;;4945902;28;20024;-69
2024/01/12 08:07:50;;;;;;;14.98;1.88;;;28.90;92.80;;;;;;4946003;28;20046;-69
2024/01/12 08:10:19;;;;;;;10.75;1.80;;;28.60;93.30;;;;;;4952066;28;20106;-69
2024/01/12 08:12:47;;;;;;;13.07;2.72;;;28.70;93.50;;;;;;4948863;29;20030;-70
2024/01/12 08:15:15;;;;;;;21.52;2.38;;;28.60;93.60;;;;;;4949209;28;20485;-69
2024/01/12 08:17:43;;;;;;;14.60;2.58;;;28.50;93.60;;;;;;4949845;29;20126;-68
2024/01/12 08:20:11;;;;;;;16.70;2.45;;;28.40;94.00;;;;;;4950107;28;20589;-70
2024/01/12 08:22:38;;;;;;;13.30;2.10;;;28.20;94.30;;;;;;4950889;29;20027;-68
2024/01/12 08:25:06;;;;;;;18.98;2.60;;;27.80;95.00;;;;;;4951438;28;20023;-69
2024/01/12 08:27:33;;;;;;;17.38;2.95;;;27.50;95.50;;;;;;4948097;28;20061;-70
2024/01/12 08:30:01;;;;;;;18.05;3.22;;;27.30;96.10;;;;;;4953459;28;20126;-69
2024/01/12 08:32:28;;;;;;;18.25;2.90;;;27.40;96.10;;;;;;4949285;29;20034;-69
2024/01/12 08:34:55;;;;;;;21.00;2.92;;;27.50;96.10;;;;;;4950832;28;20118;-70
2024/01/12 08:37:23;;;;;;;19.13;2.65;;;27.40;96.10;;;;;;4947801;28;20046;-68
2024/01/12 08:39:51;;;;;;;13.13;2.10;;;27.50;95.90;;;;;;4944734;28;20381;-71
2024/01/12 08:42:18;;;;;;;19.00;2.63;;;27.60;95.90;;;;;;4942966;29;20038;-69
2024/01/12 08:44:46;;;;;;;13.60;2.47;;;27.70;95.70;;;;;;4945353;29;20123;-70
2024/01/12 08:47:13;;;;;;;17.13;3.05;;;27.60;95.80;;;;;;4951792;28;20066;-70
2024/01/12 08:49:40;;;;;;;19.35;2.72;;;27.60;95.80;;;;;;4945748;28;20178;-70
2024/01/12 08:52:08;;;;;;;25.63;2.63;;;27.50;96.10;;;;;;4948693;28;20051;-69
2024/01/12 08:54:35;;;;;;;17.60;2.75;;;27.50;96.20;;;;;;4947147;28;20023;-70
2024/01/12 08:57:02;;;;;;;16.83;2.78;;;27.30;96.50;;;;;;4951750;28;20075;-69
2024/01/12 08:59:30;;;;;;;15.02;2.42;;;27.20;96.70;;;;;;4949725;28;20031;-69
2024/01/12 09:01:58;;;;;;;23.77;3.58;;;27.10;96.80;;;;;;4949543;28;20428;-69
2024/01/12 09:04:28;;;;;;;17.02;2.58;;;27.10;96.80;;;;;;4949136;28;20474;-69
2024/01/12 09:06:55;;;;;;;17.80;2.80;;;27.10;96.90;;;;;;4944804;28;20024;-70
2024/01/12 09:09:22;;;;;;;22.02;2.45;;;27.10;97.00;;;;;;4948489;29;20539;-70
2024/01/12 09:11:50;;;;;;;13.57;2.72;;;27.00;97.00;;;;;;4947955;28;20070;-70
2024/01/12 09:14:17;;;;;;;19.60;2.45;;;27.10;96.90;;;;;;4957216;28;20114;-70
2024/01/12 09:16:45;;;;;;;15.73;2.70;;;26.90;97.00;;;;;;4950166;29;20500;-68
2024/01/12 09:19:12;;;;;;;12.70;2.45;;;26.90;97.00;;;;;;4950608;29;20552;-69
2024/01/12 09:21:40;;;;;;;20.35;3.13;;;26.70;97.20;;;;;;4948128;28;20031;-69
2024/01/12 09:24:07;;;;;;;23.20;2.80;;;26.60;97.50;;;;;;4950895;28;20134;-70
2024/01/12 09:26:34;;;;;;;17.35;2.22;;;26.60;97.40;;;;;;4949496;28;20549;-70
2024/01/12 09:29:02;;;;;;;17.40;2.55;;;26.40;97.50;;;;;;4960356;28;20039;-70
2024/01/12 09:31:29;;;;;;;12.90;2.45;;;26.40;97.60;;;;;;4948900;28;20114;-69
2024/01/12 09:33:58;;;;;;;12.60;1.52;;;26.40;97.70;;;;;;4951509;29;20089;-69
2024/01/12 09:36:25;;;;;;;15.90;2.63;;;26.50;97.50;;;;;;4949818;28;20078;-69
2024/01/12 09:38:54;;;;;;;16.90;2.35;;;26.50;97.40;;;;;;4950278;28;20031;-69
2024/01/12 09:41:31;;;;;;;16.60;2.38;;;26.30;97.60;;;;;;4947431;29;20412;-69
2024/01/12 09:44:00;;;;;;;14.98;2.53;;;26.10;97.90;;;;;;4947045;29;20035;-67
2024/01/12 09:46:31;;;;;;;15.10;2.53;;;26.10;98.20;;;;;;4946608;29;20420;-68
2024/01/12 09:48:59;;;;;;;16.45;2.78;;;25.80;98.50;;;;;;4948728;29;20058;-69
2024/01/12 09:51:27;;;;;;;11.70;2.60;;;25.90;98.50;;;;;;4950445;28;20035;-69
2024/01/12 09:53:55;;;;;;;17.10;2.58;;;25.60;98.80;;;;;;4950730;28;20401;-69
2024/01/12 09:56:24;;;;;;;18.38;3.28;;;25.60;99.20;;;;;;4949140;28;20082;-69
2024/01/12 09:58:51;;;;;;;15.30;2.53;;;25.60;99.20;;;;;;4948965;28;20026;-70
2024/01/12 10:01:19;;;;;;;18.73;2.50;;;25.50;99.40;;;;;;4948996;28;20027;-70
2024/01/12 10:03:48;;;;;;;18.20;2.70;;;25.60;99.50;;;;;;4950206;28;20085;-70
2024/01/12 10:06:16;;;;;;;14.18;2.15;;;25.70;99.50;;;;;;4942624;29;20034;-69
2024/01/12 10:08:43;;;;;;;17.75;2.70;;;25.80;99.20;;;;;;4942141;28;20035;-69
2024/01/12 10:11:10;;;;;;;23.20;2.78;;;25.70;99.40;;;;;;4942996;28;20032;-71
2024/01/12 10:13:37;;;;;;;16.85;2.75;;;25.70;99.50;;;;;;4944494;28;20537;-70
2024/01/12 10:16:07;;;;;;;16.17;1.80;;;25.80;99.40;;;;;;4943643;28;20019;-70
2024/01/12 10:18:34;;;;;;;18.40;3.13;;;25.80;99.50;;;;;;4944322;28;20039;-71
2024/01/12 10:21:02;;;;;;;20.63;2.25;;;25.80;99.30;;;;;;4958525;28;20831;-69
2024/01/12 10:23:30;;;;;;;20.45;2.95;;;25.70;99.70;;;;;;4947897;28;20031;-69
2024/01/12 10:26:04;;;;;;;20.80;2.75;;;25.60;99.90;;;;;;4944604;28;20034;-70
2024/01/12 10:28:31;;;;;;;24.85;3.30;;;25.60;99.90;;;;;;4943931;28;20033;-70
2024/01/12 10:31:04;;;;;;;17.85;2.78;;;25.60;99.90;;;;;;4948794;28;20030;-68
2024/01/12 10:33:32;;;;;;;21.13;2.85;;;25.50;99.90;;;;;;4945118;29;20042;-72
2024/01/12 10:36:36;;;;;;;19.38;3.08;;;25.60;99.90;;;;;;4947450;28;20059;-69
2024/01/12 10:39:04;;;;;;;20.33;2.83;;;25.60;99.90;;;;;;4926401;29;20063;-69
2024/01/12 10:41:37;;;;;;;18.42;2.55;;;25.40;99.90;;;;;;4944970;28;20039;-68
2024/01/12 10:44:08;;;;;;;16.92;2.33;;;25.60;99.90;;;;;;4944722;29;20736;-68
2024/01/12 10:46:43;;;;;;;20.77;2.90;;;25.60;99.90;;;;;;4945508;28;20039;-68
2024/01/12 10:49:21;;;;;;;22.38;2.58;;;25.70;99.90;;;;;;4945308;29;20354;-68
2024/01/12 10:51:58;;;;;;;18.65;2.30;;;25.70;99.90;;;;;;4947475;29;20037;-69
2024/01/12 10:54:57;;;;;;;15.95;3.05;;;25.60;99.90;;;;;;4939756;29;20090;-69
2024/01/12 10:57:24;;;;;;;;;;;25.70;99.90;;;;;;4972401;28;20047;-69
2024/01/12 10:59:56;;;;;;;13.52;2.67;;;25.70;99.90;;;;;;4945148;29;20307;-70
2024/01/12 11:02:24;;;;;;;21.20;3.83;;;25.60;99.90;;;;;;4946371;29;20092;-70
2024/01/12 11:04:52;;;;;;;17.63;3.05;;;25.60;99.90;;;;;;4947050;28;20441;-68
2024/01/12 11:07:20;;;;;;;20.38;2.70;;;25.40;99.90;;;;;;4942588;29;20087;-69
2024/01/12 11:09:48;;;;;;;18.55;3.10;;;25.60;99.90;;;;;;4946560;28;20033;-69
2024/01/12 11:12:30;;;;;;;21.27;2.72;;;25.50;99.90;;;;;;4951043;28;20118;-71
2024/01/12 11:14:58;;;;;;;19.63;2.67;;;25.60;99.90;;;;;;4944022;29;20039;-69
2024/01/12 11:17:30;;;;;;;20.20;3.17;;;25.80;99.90;;;;;;4942500;28;20046;-70
2024/01/12 11:20:11;;;;;;;18.88;2.50;;;25.80;99.90;;;;;;4949318;29;20086;-70
2024/01/12 11:22:40;;;;;;;15.00;2.45;;;25.60;99.90;;;;;;4941793;28;20039;-69
2024/01/12 11:25:09;;;;;;;16.90;2.80;;;25.60;99.90;;;;;;4946260;29;20028;-68
2024/01/12 11:27:40;;;;;;;22.73;3.20;;;25.50;99.90;;;;;;4941593;28;20035;-69
2024/01/12 11:30:09;;;;;;;21.70;2.95;;;25.40;99.90;;;;;;4943558;28;20561;-68
2024/01/12 11:32:37;;;;;;;18.35;2.72;;;25.50;99.90;;;;;;4946237;29;20035;-69
2024/01/12 11:35:18;;;;;;;16.17;2.42;;;25.40;99.90;;;;;;4946938;29;20070;-70
2024/01/12 11:38:00;;;;;;;15.77;2.92;;;25.40;99.90;;;;;;4948125;29;20449;-68
2024/01/12 11:40:29;;;;;;;20.10;3.25;;;25.40;99.90;;;;;;4944468;28;20082;-69
2024/01/12 11:43:00;;;;;;;20.25;3.17;;;25.40;99.90;;;;;;4947849;28;20035;-73
2024/01/12 11:45:29;;;;;;;18.58;2.90;;;25.50;99.90;;;;;;4947415;28;20071;-73
2024/01/12 11:47:56;;;;;;;28.35;3.90;;;25.30;99.90;;;;;;4943886;29;20030;-72
2024/01/12 11:50:27;;;;;;;24.17;3.30;;;25.20;99.90;;;;;;4944017;28;20059;-73
2024/01/12 11:53:02;;;;;;;21.83;3.05;;;25.00;99.90;;;;;;4946369;28;20047;-72
2024/01/12 11:55:32;;;;;;;22.42;2.83;;;24.70;99.90;;;;;;4949479;28;20027;-73
2024/01/12 11:57:59;;;;;;;27.48;4.78;;;24.50;99.90;;;;;;4944519;28;20150;-72
2024/01/12 12:00:27;;;;;;;28.27;3.08;;;24.40;99.90;;;;;;4947713;28;20485;-72
2024/01/12 12:02:54;;;;;;;20.20;3.65;;;24.40;99.90;;;;;;4947653;28;20027;-71
2024/01/12 12:05:22;;;;;;;30.65;3.20;;;24.40;99.90;;;;;;4946219;29;20585;-72
2024/01/12 12:07:49;;;;;;;25.50;4.07;;;24.40;99.90;;;;;;4942276;28;20134;-73
2024/01/12 12:10:16;;;;;;;23.13;3.17;;;24.50;99.90;;;;;;4941961;28;20027;-72
2024/01/12 12:12:44;;;;;;;18.33;3.15;;;24.50;99.90;;;;;;4944708;28;20125;-74
2024/01/12 12:15:14;;;;;;;19.48;3.03;;;24.30;99.90;;;;;;4943305;28;20031;-72
2024/01/12 12:17:48;;;;;;;25.58;3.35;;;24.20;99.90;;;;;;4940868;28;21496;-71
2024/01/12 12:20:16;;;;;;;19.92;3.05;;;24.20;99.90;;;;;;4945368;29;20071;-74
2024/01/12 12:22:46;;;;;;;19.45;2.45;;;24.10;99.90;;;;;;4949201;29;20050;-72
2024/01/12 12:25:16;;;;;;;22.30;2.55;;;24.00;99.90;;;;;;4947108;29;20038;-74
2024/01/12 12:27:45;;;;;;;20.02;3.03;;;23.90;99.90;;;;;;4946912;28;20027;-73
2024/01/12 12:30:15;;;;;;;19.88;3.72;;;23.90;99.90;;;;;;4941086;29;20401;-73
2024/01/12 12:32:43;;;;;;;21.05;3.72;;;23.80;99.90;;;;;;4945010;28;20035;-74
2024/01/12 12:35:18;;;;;;;17.20;2.60;;;23.80;99.90;;;;;;4950986;28;20027;-71
2024/01/12 12:37:52;;;;;;;22.27;2.90;;;23.70;99.90;;;;;;4944940;29;20576;-74
2024/01/12 12:40:20;;;;;;;17.98;2.90;;;23.70;99.90;;;;;;4954481;28;20364;-71
2024/01/12 12:42:49;;;;;;;19.75;2.60;;;23.60;99.90;;;;;;4950489;29;20019;-72
2024/01/12 12:45:19;;;;;;;21.02;3.10;;;23.60;99.90;;;;;;4949388;28;20027;-71